Miles City, MT

12:48 PM MST on December 03, 2016 (GMT -0700)
Cowles Creek Subdivison | | Change Station

Elev 2425 ft 46.34 °N, 105.78 °W | Updated 8 seconds ago

Mostly Cloudy
Mostly Cloudy
44.1 °F
Feels Like 44 °F
N
2.9
Wind Variable Wind from WSW
Gusts 4.9 mph

Today
High -- | Low -- °F
--% Chance of Precip.
Yesterday
High -- | Low -- °F
Precip. -- in
Pressure 29.89 in
Visibility 10.0 miles
Clouds Scattered Clouds 9000 ft
Mostly Cloudy 12000 ft
Windchill 44 °F
Dew Point 25 °F
Humidity 47%
Rainfall 0.00 in
Snow Depth Not available.
7:29 AM 4:17 PM
Waxing Crescent, 16% visible
METAR KMLS 031853Z AUTO 23011KT 10SM SCT090 BKN120 04/M04 A2982 RMK AO2 SLP121 T00441039
Pressure 29.89 in
Visibility 10.0 miles
Clouds Scattered Clouds 9000 ft
Mostly Cloudy 12000 ft
Windchill 44 °F
Dew Point 25 °F
Humidity 47%
Rainfall 0.00 in
Snow Depth Not available.
7:29 AM 4:17 PM
Waxing Crescent, 16% visible
METAR KMLS 031853Z AUTO 23011KT 10SM SCT090 BKN120 04/M04 A2982 RMK AO2 SLP121 T00441039

10-Day Weather Forecast

Almanac

Astronomy

Dec. 03, 2016 Rise Set
Actual Time
Civil Twilight
Nautical Twilight
Astronomical Twilight
Moon
Length of Visible Light
Length of Day
Tomorrow will be .
, % of the Moon is Illuminated

Today's Extremes

State Highs State Lows

Community

WunderPhotos

Upload Photos

1,955,481 photos uploaded!

WunderBlog® & News

Nearby

Air Quality

  Air Quality AQ Index Pollutant
Not available.

Snow Depth

Station Depth Elevation

Earthquake Activity

City Distance Mag. Time & Date
Minimum magnitude displayed is 2.5.

Coastal Water Temperatures

Place Temperature

Stations

Nearby Weather Stations

Station Location Temp. Windchill Dew Point Humidity Wind Precip. Elev Updated Type
                   

Watches & Warnings

There are currently no watches in effect.